Terminal Aerodrome Forecast
Issued by NWS

Home | Current Version | Previous Version | Text Only | Print | Product List | Glossary On
Versions: 1 2 3 4 5 6 7 8 9 10 11 12 13 14 15 16 17 18 19
000
FTUS45 KPSR 261121
TAFIWA
TAF
KIWA 261121Z 2612/2712 07012KT P6SM VCSH BKN100
     FM261300 10007KT P6SM SCT100
     FM261900 25008KT P6SM SCT110
     FM270400 14007KT P6SM SCT110
      AMD LTD TO CLD VIS AND WIND TIL 261300=

USA.gov is the U.S. government's official web portal to all federal, state and local government web resources and services.